createdAt,value
2022-12-16T00:02:01.504Z,67.55
2022-12-16T00:07:02.991Z,67.52
2022-12-16T00:12:04.671Z,67.71
2022-12-16T00:17:06.190Z,67.66
2022-12-16T00:22:07.631Z,67.48
2022-12-16T00:27:09.689Z,67.60
2022-12-16T00:32:11.018Z,67.46
2022-12-16T00:37:13.307Z,67.77
2022-12-16T00:42:14.641Z,67.63
2022-12-16T00:47:15.958Z,67.77
2022-12-16T00:52:17.299Z,67.82
2022-12-16T00:57:18.712Z,67.77
2022-12-16T01:02:20.155Z,67.78
2022-12-16T01:07:21.677Z,67.87
2022-12-16T01:12:23.975Z,67.80
2022-12-16T01:17:25.997Z,67.67
2022-12-16T01:22:30.401Z,67.76
2022-12-16T01:27:31.900Z,67.74
2022-12-16T01:32:33.294Z,67.62
2022-12-16T01:37:34.692Z,67.58
2022-12-16T01:42:36.083Z,67.27
2022-12-16T01:47:37.650Z,67.65
2022-12-16T01:52:45.058Z,67.65
2022-12-16T01:57:55.128Z,67.89
2022-12-16T02:02:58.278Z,67.46
2022-12-16T02:08:10.483Z,67.51
2022-12-16T02:13:26.676Z,67.64
2022-12-16T02:18:58.304Z,67.51
2022-12-16T02:24:18.129Z,67.48
2022-12-16T02:29:33.745Z,67.53
2022-12-16T02:34:49.384Z,67.69
2022-12-16T02:39:58.612Z,67.38
2022-12-16T02:45:18.012Z,67.50
2022-12-16T02:50:34.871Z,67.06
2022-12-16T02:55:45.892Z,67.58
2022-12-16T03:01:17.350Z,67.32
2022-12-16T03:06:21.835Z,67.48
2022-12-16T03:11:27.637Z,67.62
2022-12-16T03:16:32.339Z,67.23
2022-12-16T03:21:44.889Z,67.60
2022-12-16T03:26:55.761Z,67.15
2022-12-16T03:31:58.243Z,67.82
2022-12-16T03:37:04.028Z,67.48
2022-12-16T03:42:07.058Z,67.73
2022-12-16T03:47:08.425Z,67.25
2022-12-16T03:52:09.936Z,67.29
2022-12-16T03:57:15.236Z,67.40
2022-12-16T04:02:17.060Z,67.61
2022-12-16T04:07:21.228Z,67.55
2022-12-16T04:12:40.997Z,67.53
2022-12-16T04:18:01.564Z,67.56
2022-12-16T04:23:23.026Z,67.21
2022-12-16T04:28:24.364Z,67.73
2022-12-16T04:33:44.507Z,68.05
2022-12-16T04:39:04.575Z,67.69
2022-12-16T04:44:24.487Z,67.53
2022-12-16T04:49:44.851Z,67.13
2022-12-16T04:55:04.598Z,67.61
2022-12-16T05:00:25.494Z,67.58
2022-12-16T05:05:45.135Z,67.02
2022-12-16T05:11:05.094Z,67.07
2022-12-16T05:16:25.323Z,66.79
2022-12-16T05:21:45.161Z,66.42
2022-12-16T05:27:04.902Z,66.72
2022-12-16T05:32:24.716Z,67.02
2022-12-16T05:37:45.023Z,66.32
2022-12-16T05:43:09.816Z,66.50
2022-12-16T05:48:32.167Z,66.06
2022-12-16T05:53:51.899Z,65.96
2022-12-16T05:59:11.799Z,66.37
2022-12-16T06:04:31.615Z,66.36
2022-12-16T06:09:56.300Z,66.22
2022-12-16T06:15:16.557Z,65.98
2022-12-16T06:20:36.406Z,65.81
2022-12-16T06:25:56.729Z,65.91
2022-12-16T06:31:16.590Z,66.52
2022-12-16T06:36:36.550Z,66.16
2022-12-16T06:41:56.371Z,66.11
2022-12-16T06:47:16.134Z,66.49
2022-12-16T06:52:35.937Z,66.54
2022-12-16T06:57:55.930Z,66.66
2022-12-16T07:03:16.102Z,66.74
2022-12-16T07:08:35.959Z,66.90
2022-12-16T07:13:55.951Z,66.63
2022-12-16T07:19:16.361Z,66.39
2022-12-16T07:24:36.484Z,67.17
2022-12-16T07:29:56.211Z,67.09
2022-12-16T07:35:16.138Z,66.74
2022-12-16T07:40:35.892Z,66.60
2022-12-16T07:45:56.028Z,66.67
2022-12-16T07:51:16.090Z,66.79
2022-12-16T07:56:36.462Z,66.36
2022-12-16T08:01:56.297Z,66.42
2022-12-16T08:07:16.115Z,66.22
2022-12-16T08:12:36.198Z,66.55
2022-12-16T08:17:55.992Z,66.38
2022-12-16T08:23:15.808Z,66.21
2022-12-16T08:28:35.695Z,66.07
2022-12-16T08:33:55.805Z,66.86
2022-12-16T08:39:15.672Z,67.70
2022-12-16T08:44:35.628Z,67.30
2022-12-16T08:49:57.832Z,67.39
2022-12-16T08:55:27.683Z,67.50
2022-12-16T09:00:49.454Z,67.22
2022-12-16T09:06:09.347Z,67.82
2022-12-16T09:11:29.098Z,67.66
2022-12-16T09:16:49.232Z,67.91
2022-12-16T09:22:09.114Z,67.86
2022-12-16T09:27:29.335Z,67.49
2022-12-16T09:32:49.387Z,67.74
2022-12-16T09:38:09.716Z,67.70
2022-12-16T09:43:54.643Z,67.79
2022-12-16T09:49:24.605Z,67.93
2022-12-16T09:54:47.883Z,67.61
2022-12-16T10:00:20.604Z,67.69
2022-12-16T10:05:52.314Z,67.15
2022-12-16T10:11:25.511Z,66.79
2022-12-16T10:17:10.649Z,66.60
2022-12-16T10:22:45.712Z,67.07
2022-12-16T10:28:07.583Z,66.85
2022-12-16T10:33:33.061Z,66.99
2022-12-16T10:38:58.211Z,66.56
2022-12-16T10:44:19.189Z,66.69
2022-12-16T10:49:39.373Z,66.19
2022-12-16T10:55:05.643Z,65.98
2022-12-16T11:00:38.428Z,65.98
2022-12-16T11:05:58.504Z,65.70
2022-12-16T11:11:31.796Z,66.07
2022-12-16T11:16:51.722Z,65.86
2022-12-16T11:22:25.175Z,65.99
2022-12-16T11:27:45.513Z,65.92
2022-12-16T11:33:09.883Z,65.21
2022-12-16T11:38:58.904Z,65.76
2022-12-16T11:44:21.197Z,65.47
2022-12-16T11:49:48.584Z,65.77
2022-12-16T11:56:04.031Z,65.43
2022-12-16T12:01:45.034Z,65.94
2022-12-16T12:07:50.835Z,65.61
2022-12-16T12:13:20.440Z,65.42
2022-12-16T12:18:56.535Z,65.25
2022-12-16T12:24:33.358Z,65.84
2022-12-16T12:30:16.557Z,65.56
2022-12-16T12:36:05.184Z,65.89
2022-12-16T12:41:37.098Z,66.05
2022-12-16T12:47:07.637Z,66.04
2022-12-16T12:52:45.486Z,65.18
2022-12-16T12:58:09.273Z,66.12
2022-12-16T13:03:55.805Z,65.37
2022-12-16T13:09:18.165Z,65.73
2022-12-16T13:15:10.512Z,65.76
2022-12-16T13:20:52.346Z,65.51
2022-12-16T13:26:23.261Z,65.33
2022-12-16T13:31:45.198Z,65.53
2022-12-16T13:37:12.417Z,66.03
2022-12-16T13:42:53.405Z,66.40
2022-12-16T13:48:13.237Z,66.46
2022-12-16T13:53:35.479Z,66.15
2022-12-16T13:59:17.832Z,66.20
2022-12-16T14:04:45.212Z,66.65
2022-12-16T14:10:07.683Z,67.03
2022-12-16T14:15:44.609Z,66.93
2022-12-16T14:21:17.935Z,66.51
2022-12-16T14:26:38.682Z,66.85
2022-12-16T14:32:01.465Z,66.80
2022-12-16T14:37:42.878Z,65.83
2022-12-16T14:43:05.307Z,66.45
2022-12-16T14:48:49.823Z,66.69
2022-12-16T14:54:10.133Z,66.42
2022-12-16T14:59:32.046Z,66.25
2022-12-16T15:04:52.002Z,65.79
2022-12-16T15:10:14.287Z,65.67
2022-12-16T15:15:41.581Z,66.45
2022-12-16T15:21:13.318Z,66.37
2022-12-16T15:26:38.332Z,66.07
2022-12-16T15:32:03.349Z,65.71
2022-12-16T15:37:34.610Z,66.08
2022-12-16T15:42:54.865Z,65.30
2022-12-16T15:48:15.279Z,66.14
2022-12-16T15:53:47.514Z,65.85
2022-12-16T15:59:07.685Z,65.64
2022-12-16T16:04:39.278Z,65.61
2022-12-16T16:09:59.021Z,65.63
2022-12-16T16:15:19.583Z,65.46
2022-12-16T16:20:39.388Z,65.47
2022-12-16T16:26:03.651Z,66.36
2022-12-16T16:31:24.336Z,65.79
2022-12-16T16:36:44.585Z,65.88
2022-12-16T16:42:04.570Z,65.49
2022-12-16T16:47:33.547Z,65.97
2022-12-16T16:52:53.266Z,65.71
2022-12-16T16:58:12.992Z,66.35
2022-12-16T17:03:34.039Z,66.26
2022-12-16T17:08:54.825Z,65.80
2022-12-16T17:14:14.790Z,66.13
2022-12-16T17:19:34.638Z,66.12
2022-12-16T17:24:54.835Z,66.14
2022-12-16T17:30:14.971Z,65.98
2022-12-16T17:35:34.737Z,66.68
2022-12-16T17:40:54.607Z,65.88
2022-12-16T17:46:25.791Z,66.34
2022-12-16T17:51:45.913Z,66.03
2022-12-16T17:57:06.046Z,66.32
2022-12-16T18:02:31.646Z,65.95
2022-12-16T18:07:51.828Z,66.11
2022-12-16T18:13:14.158Z,65.88
2022-12-16T18:18:34.330Z,65.70
2022-12-16T18:23:54.426Z,66.27
2022-12-16T18:29:14.594Z,65.77
2022-12-16T18:34:34.866Z,65.75
2022-12-16T18:39:54.675Z,65.69
2022-12-16T18:45:14.767Z,65.89
2022-12-16T18:50:37.971Z,65.35
2022-12-16T18:55:58.243Z,65.51
2022-12-16T19:01:21.116Z,65.46
2022-12-16T19:06:41.189Z,65.72
2022-12-16T19:12:01.240Z,65.59
2022-12-16T19:17:21.706Z,65.61
2022-12-16T19:22:41.460Z,65.45
2022-12-16T19:28:01.290Z,65.71
2022-12-16T19:33:21.349Z,65.72
2022-12-16T19:38:41.194Z,65.70
2022-12-16T19:49:44.405Z,65.55
2022-12-16T19:55:04.801Z,65.57
2022-12-16T20:00:25.419Z,65.86
2022-12-16T20:05:45.577Z,65.76
2022-12-16T20:11:05.420Z,66.10
2022-12-16T20:16:27.951Z,66.10
2022-12-16T20:21:49.079Z,66.44
2022-12-16T20:27:09.581Z,65.77
2022-12-16T20:32:29.334Z,66.29
2022-12-16T20:37:49.239Z,66.15
2022-12-16T20:43:09.066Z,66.13
2022-12-16T20:48:33.455Z,65.96
2022-12-16T20:53:53.743Z,66.37
2022-12-16T20:59:16.701Z,65.99
2022-12-16T21:04:36.519Z,66.64
2022-12-16T21:09:56.241Z,66.43
2022-12-16T21:14:28.351Z,65.89
2022-12-16T21:15:16.244Z,66.51
2022-12-16T21:20:36.473Z,66.29
2022-12-16T21:25:56.256Z,66.45
2022-12-16T21:31:17.930Z,66.65
2022-12-16T21:36:38.072Z,66.31
2022-12-16T21:41:58.127Z,66.06
2022-12-16T21:47:17.980Z,66.53
2022-12-16T21:52:37.756Z,66.41
2022-12-16T21:57:57.620Z,66.80
2022-12-16T22:03:17.349Z,66.51
2022-12-16T22:08:37.262Z,66.12
2022-12-16T22:13:57.095Z,66.59
2022-12-16T22:19:16.995Z,66.44
2022-12-16T22:24:36.974Z,66.68
2022-12-16T22:29:56.904Z,66.40
2022-12-16T22:35:16.854Z,66.77
2022-12-16T22:40:37.095Z,66.39
2022-12-16T22:45:56.859Z,66.20
2022-12-16T22:51:16.689Z,66.74
2022-12-16T22:56:36.570Z,66.88
2022-12-16T23:02:10.144Z,66.99
2022-12-16T23:07:30.412Z,66.65
2022-12-16T23:12:50.690Z,67.04
2022-12-16T23:18:11.773Z,66.43
2022-12-16T23:23:31.538Z,66.43
2022-12-16T23:28:51.386Z,66.26
2022-12-16T23:34:12.153Z,66.74
2022-12-16T23:41:17.878Z,66.17
2022-12-16T23:46:37.794Z,66.75
2022-12-16T23:51:57.873Z,66.74
2022-12-16T23:57:17.692Z,66.35
